Kaneohe, HI

9:46 AM HST on March 05, 2015 (GMT -1000)
Keapuka | Change Station
CLOSE
Current Station
Personal Weather Station
Location: Kaneohe, HI
Elevation: 164 ft
Nearby Weather Stations

Elev 164 ft 21.40 °N, 157.81 °W | Updated 7 seconds ago

Overcast
Overcast
71.4 °F
Feels Like 73 °F
N
7.3
Wind Variable Wind from ESE
Gusts 10.9 mph

Today
High -- | Low -- °F
--% Chance of Precip.
Yesterday
High -- | Low -- °F
Precip. -- in
6:48 AM 6:37 PM
Full, 100% visible
Pressure 29.98 in
Visibility -9999.0 miles
Clouds Few 2300 ft
Scattered Clouds 3200 ft
Overcast 5500 ft
Heat Index 73 °F
Dew Point 62 °F
Humidity 75%
Rainfall in
Snow Depth Not available.
UV 1 out of 12
Pollen Not available.
Air Quality Not available.
Flu Activity Not available.
METAR PHNG 051857Z AUTO 03020G24KT FEW023 SCT032 OVC055 22/17 A2999 RMK AO2 SLP151 T02220167 $

More Conditions Fewer Conditions

Pressure 29.98 in
Visibility -9999.0 miles
Clouds Few 2300 ft
Scattered Clouds 3200 ft
Overcast 5500 ft
Heat Index 73 °F
Dew Point 62 °F
Humidity 75%
Rainfall in
Snow Depth Not available.
UV 1 out of 12
Pollen Not available.
Air Quality Not available.
Flu Activity Not available.
METAR PHNG 051857Z AUTO 03020G24KT FEW023 SCT032 OVC055 22/17 A2999 RMK AO2 SLP151 T02220167 $

More Conditions Fewer Conditions

10-Day Weather Forecast

Almanac

Astronomy

Mar. 05, 2015 Rise Set
Actual Time
Civil Twilight
Nautical Twilight
Astronomical Twilight
Moon
Length of Visible Light
Length of Day
Tomorrow will be .
, % of the Moon is Illuminated

Today's Extremes

State Highs State Lows

Community

WunderPhotos

Upload Photos

1,802,929 photos uploaded!

WunderBlogs® & News

Nearby

Air Quality

  Air Quality AQ Index Pollutant
Not available.

Snow Depth

Station Depth Elevation

Earthquake Activity

City Distance Mag. Time & Date
Minimum magnitude displayed is 2.5.

Coastal Water Temperatures

Place Temperature

Nearby Weather Stations